sensor_id;sensor_type;location;lat;lon;timestamp;pressure;altitude;pressure_sealevel;temperature;humidity
71970;BME280;59838;52.152;5.436;2022-10-16T00:00:58;101071.59;;;11.53;94.56
71970;BME280;59838;52.152;5.436;2022-10-16T00:03:30;101073.84;;;11.57;94.91
71970;BME280;59838;52.152;5.436;2022-10-16T00:05:59;101076.28;;;11.58;94.80
71970;BME280;59838;52.152;5.436;2022-10-16T00:08:27;101070.06;;;11.59;94.59
71970;BME280;59838;52.152;5.436;2022-10-16T00:11:02;101066.47;;;11.60;94.34
71970;BME280;59838;52.152;5.436;2022-10-16T00:13:29;101072.66;;;11.59;93.97
71970;BME280;59838;52.152;5.436;2022-10-16T00:15:57;101071.50;;;11.62;94.13
71970;BME280;59838;52.152;5.436;2022-10-16T00:18:24;101073.09;;;11.63;93.90
71970;BME280;59838;52.152;5.436;2022-10-16T00:20:50;101075.69;;;11.63;93.88
71970;BME280;59838;52.152;5.436;2022-10-16T00:23:17;101081.91;;;11.62;94.01
71970;BME280;59838;52.152;5.436;2022-10-16T00:25:43;101085.66;;;11.59;94.01
71970;BME280;59838;52.152;5.436;2022-10-16T00:28:10;101086.69;;;11.58;94.42
71970;BME280;59838;52.152;5.436;2022-10-16T00:30:39;101085.84;;;11.58;94.65
71970;BME280;59838;52.152;5.436;2022-10-16T00:33:06;101079.06;;;11.57;94.64
71970;BME280;59838;52.152;5.436;2022-10-16T00:35:32;101083.91;;;11.60;94.58
71970;BME280;59838;52.152;5.436;2022-10-16T00:37:58;101083.69;;;11.61;94.60
71970;BME280;59838;52.152;5.436;2022-10-16T00:40:25;101074.53;;;11.65;94.37
71970;BME280;59838;52.152;5.436;2022-10-16T00:42:51;101072.72;;;11.66;94.44
71970;BME280;59838;52.152;5.436;2022-10-16T00:45:18;101070.59;;;11.69;94.32
71970;BME280;59838;52.152;5.436;2022-10-16T00:47:45;101070.38;;;11.71;94.36
71970;BME280;59838;52.152;5.436;2022-10-16T00:50:26;101072.81;;;11.73;94.38
71970;BME280;59838;52.152;5.436;2022-10-16T00:52:54;101077.03;;;11.74;94.49
71970;BME280;59838;52.152;5.436;2022-10-16T00:55:22;101074.66;;;11.79;94.42
71970;BME280;59838;52.152;5.436;2022-10-16T00:57:49;101076.28;;;11.80;94.41
71970;BME280;59838;52.152;5.436;2022-10-16T01:00:20;101079.16;;;11.85;94.19
71970;BME280;59838;52.152;5.436;2022-10-16T01:02:58;101074.56;;;11.87;94.31
71970;BME280;59838;52.152;5.436;2022-10-16T01:05:31;101077.78;;;11.89;94.47
71970;BME280;59838;52.152;5.436;2022-10-16T01:08:09;101079.84;;;11.94;94.53
71970;BME280;59838;52.152;5.436;2022-10-16T01:10:40;101086.69;;;11.95;94.35
71970;BME280;59838;52.152;5.436;2022-10-16T01:13:12;101085.69;;;11.96;94.52
71970;BME280;59838;52.152;5.436;2022-10-16T01:18:17;101094.00;;;12.06;94.14
71970;BME280;59838;52.152;5.436;2022-10-16T01:21:12;101087.44;;;12.10;94.22
71970;BME280;59838;52.152;5.436;2022-10-16T01:26:58;101068.06;;;12.19;94.21
71970;BME280;59838;52.152;5.436;2022-10-16T01:29:29;101073.94;;;12.21;94.00
71970;BME280;59838;52.152;5.436;2022-10-16T01:32:10;101083.97;;;12.24;94.06
71970;BME280;59838;52.152;5.436;2022-10-16T01:35:04;101079.56;;;12.25;94.20
71970;BME280;59838;52.152;5.436;2022-10-16T01:37:37;101078.53;;;12.26;94.11
71970;BME280;59838;52.152;5.436;2022-10-16T01:40:09;101077.38;;;12.29;94.03
71970;BME280;59838;52.152;5.436;2022-10-16T01:42:41;101084.22;;;12.30;93.87
71970;BME280;59838;52.152;5.436;2022-10-16T01:45:11;101084.22;;;12.30;93.88
71970;BME280;59838;52.152;5.436;2022-10-16T01:47:40;101074.59;;;12.30;93.90
71970;BME280;59838;52.152;5.436;2022-10-16T01:50:07;101084.22;;;12.30;94.05
71970;BME280;59838;52.152;5.436;2022-10-16T01:52:37;101079.00;;;12.30;93.88
71970;BME280;59838;52.152;5.436;2022-10-16T01:55:07;101075.19;;;12.32;93.89
71970;BME280;59838;52.152;5.436;2022-10-16T01:57:37;101079.44;;;12.33;93.89
71970;BME280;59838;52.152;5.436;2022-10-16T02:00:09;101068.22;;;12.33;94.11
71970;BME280;59838;52.152;5.436;2022-10-16T02:02:38;101068.22;;;12.33;94.25
71970;BME280;59838;52.152;5.436;2022-10-16T02:07:44;101057.59;;;12.34;94.27
71970;BME280;59838;52.152;5.436;2022-10-16T02:10:11;101060.22;;;12.34;94.26
71970;BME280;59838;52.152;5.436;2022-10-16T02:12:40;101063.78;;;12.33;94.36
71970;BME280;59838;52.152;5.436;2022-10-16T02:15:09;101071.44;;;12.35;94.14
71970;BME280;59838;52.152;5.436;2022-10-16T02:17:35;101062.41;;;12.37;94.14
71970;BME280;59838;52.152;5.436;2022-10-16T02:20:03;101073.66;;;12.38;94.04
71970;BME280;59838;52.152;5.436;2022-10-16T02:22:36;101070.22;;;12.37;94.34
71970;BME280;59838;52.152;5.436;2022-10-16T02:25:11;101073.22;;;12.34;94.54
71970;BME280;59838;52.152;5.436;2022-10-16T02:30:36;101081.03;;;12.34;94.52
71970;BME280;59838;52.152;5.436;2022-10-16T02:33:08;101085.44;;;12.34;94.38
71970;BME280;59838;52.152;5.436;2022-10-16T02:35:36;101080.22;;;12.34;94.76
71970;BME280;59838;52.152;5.436;2022-10-16T02:38:04;101079.63;;;12.32;94.27
71970;BME280;59838;52.152;5.436;2022-10-16T02:40:32;101077.19;;;12.30;94.38
71970;BME280;59838;52.152;5.436;2022-10-16T02:42:59;101080.78;;;12.29;94.29
71970;BME280;59838;52.152;5.436;2022-10-16T02:45:26;101087.19;;;12.27;94.37
71970;BME280;59838;52.152;5.436;2022-10-16T02:47:52;101090.16;;;12.23;94.51
71970;BME280;59838;52.152;5.436;2022-10-16T02:50:19;101092.16;;;12.21;94.50
71970;BME280;59838;52.152;5.436;2022-10-16T02:52:45;101101.31;;;12.17;94.80
71970;BME280;59838;52.152;5.436;2022-10-16T02:55:11;101102.31;;;12.16;94.95
71970;BME280;59838;52.152;5.436;2022-10-16T02:57:38;101098.09;;;12.15;94.96
71970;BME280;59838;52.152;5.436;2022-10-16T03:00:08;101099.09;;;12.14;95.19
71970;BME280;59838;52.152;5.436;2022-10-16T03:02:35;101098.91;;;12.16;95.39
71970;BME280;59838;52.152;5.436;2022-10-16T03:05:02;101101.69;;;12.14;95.32
71970;BME280;59838;52.152;5.436;2022-10-16T03:07:28;101106.91;;;12.14;95.60
71970;BME280;59838;52.152;5.436;2022-10-16T03:09:54;101100.72;;;12.15;95.72
71970;BME280;59838;52.152;5.436;2022-10-16T03:12:21;101102.13;;;12.18;95.78
71970;BME280;59838;52.152;5.436;2022-10-16T03:14:48;101102.56;;;12.21;95.46
71970;BME280;59838;52.152;5.436;2022-10-16T03:17:14;101091.16;;;12.22;95.60
71970;BME280;59838;52.152;5.436;2022-10-16T03:19:42;101090.53;;;12.20;95.70
71970;BME280;59838;52.152;5.436;2022-10-16T03:22:09;101089.28;;;12.16;95.78
71970;BME280;59838;52.152;5.436;2022-10-16T03:24:35;101083.47;;;12.14;96.01
71970;BME280;59838;52.152;5.436;2022-10-16T03:27:02;101091.47;;;12.13;95.93
71970;BME280;59838;52.152;5.436;2022-10-16T03:29:28;101100.47;;;12.10;95.95
71970;BME280;59838;52.152;5.436;2022-10-16T03:31:56;101100.84;;;12.07;96.00
71970;BME280;59838;52.152;5.436;2022-10-16T03:34:22;101105.22;;;12.06;96.11
71970;BME280;59838;52.152;5.436;2022-10-16T03:36:49;101106.78;;;12.01;96.21
71970;BME280;59838;52.152;5.436;2022-10-16T03:39:15;101102.72;;;11.98;96.39
71970;BME280;59838;52.152;5.436;2022-10-16T03:41:42;101105.53;;;11.97;96.77
71970;BME280;59838;52.152;5.436;2022-10-16T03:44:08;101108.94;;;11.97;96.66
71970;BME280;59838;52.152;5.436;2022-10-16T03:46:34;101111.56;;;11.97;96.76
71970;BME280;59838;52.152;5.436;2022-10-16T03:49:01;101124.13;;;11.94;97.04
71970;BME280;59838;52.152;5.436;2022-10-16T03:51:32;101123.03;;;11.88;97.10
71970;BME280;59838;52.152;5.436;2022-10-16T03:53:59;101114.16;;;11.82;96.98
71970;BME280;59838;52.152;5.436;2022-10-16T03:56:25;101112.56;;;11.81;97.47
71970;BME280;59838;52.152;5.436;2022-10-16T03:58:51;101125.56;;;11.81;97.43
71970;BME280;59838;52.152;5.436;2022-10-16T04:01:18;101123.34;;;11.78;97.35
71970;BME280;59838;52.152;5.436;2022-10-16T04:03:44;101121.44;;;11.72;97.56
71970;BME280;59838;52.152;5.436;2022-10-16T04:06:11;101126.84;;;11.70;97.82
71970;BME280;59838;52.152;5.436;2022-10-16T04:08:37;101135.84;;;11.68;97.92
71970;BME280;59838;52.152;5.436;2022-10-16T04:11:05;101132.59;;;11.66;98.21
71970;BME280;59838;52.152;5.436;2022-10-16T04:13:31;101131.78;;;11.65;97.89
71970;BME280;59838;52.152;5.436;2022-10-16T04:15:57;101135.72;;;11.61;98.32
71970;BME280;59838;52.152;5.436;2022-10-16T04:18:24;101138.34;;;11.61;98.37
71970;BME280;59838;52.152;5.436;2022-10-16T04:20:53;101137.88;;;11.58;98.65
71970;BME280;59838;52.152;5.436;2022-10-16T04:23:20;101146.72;;;11.57;98.81
71970;BME280;59838;52.152;5.436;2022-10-16T04:25:48;101152.72;;;11.57;98.67
71970;BME280;59838;52.152;5.436;2022-10-16T04:28:15;101151.91;;;11.57;98.94
71970;BME280;59838;52.152;5.436;2022-10-16T04:30:41;101153.88;;;11.55;98.89
71970;BME280;59838;52.152;5.436;2022-10-16T04:33:09;101163.47;;;11.54;99.01
71970;BME280;59838;52.152;5.436;2022-10-16T04:35:35;101169.13;;;11.58;99.05
71970;BME280;59838;52.152;5.436;2022-10-16T04:38:02;101161.13;;;11.59;99.38
71970;BME280;59838;52.152;5.436;2022-10-16T04:40:28;101170.91;;;11.57;99.57
71970;BME280;59838;52.152;5.436;2022-10-16T04:42:55;101181.50;;;11.56;99.04
71970;BME280;59838;52.152;5.436;2022-10-16T04:45:21;101180.53;;;11.57;99.12
71970;BME280;59838;52.152;5.436;2022-10-16T04:47:47;101180.53;;;11.57;99.09
71970;BME280;59838;52.152;5.436;2022-10-16T04:50:14;101176.47;;;11.54;99.25
71970;BME280;59838;52.152;5.436;2022-10-16T04:52:40;101178.09;;;11.55;99.33
71970;BME280;59838;52.152;5.436;2022-10-16T04:55:07;101189.94;;;11.58;99.44
71970;BME280;59838;52.152;5.436;2022-10-16T04:57:33;101190.94;;;11.57;99.29
71970;BME280;59838;52.152;5.436;2022-10-16T05:00:00;101196.78;;;11.59;99.33
71970;BME280;59838;52.152;5.436;2022-10-16T05:02:26;101191.75;;;11.57;99.72
71970;BME280;59838;52.152;5.436;2022-10-16T05:04:53;101199.38;;;11.59;99.48
71970;BME280;59838;52.152;5.436;2022-10-16T05:07:19;101200.78;;;11.61;99.51
71970;BME280;59838;52.152;5.436;2022-10-16T05:09:46;101196.94;;;11.57;99.24
71970;BME280;59838;52.152;5.436;2022-10-16T05:12:12;101200.69;;;11.55;99.50
71970;BME280;59838;52.152;5.436;2022-10-16T05:14:39;101200.09;;;11.52;99.49
71970;BME280;59838;52.152;5.436;2022-10-16T05:17:05;101211.28;;;11.53;99.82
71970;BME280;59838;52.152;5.436;2022-10-16T05:19:32;101215.06;;;11.50;99.74
71970;BME280;59838;52.152;5.436;2022-10-16T05:21:58;101222.25;;;11.48;99.55
71970;BME280;59838;52.152;5.436;2022-10-16T05:24:25;101218.38;;;11.44;99.79
71970;BME280;59838;52.152;5.436;2022-10-16T05:26:51;101227.16;;;11.43;99.84
71970;BME280;59838;52.152;5.436;2022-10-16T05:29:18;101225.91;;;11.39;99.82
71970;BME280;59838;52.152;5.436;2022-10-16T05:31:45;101230.69;;;11.36;99.78
71970;BME280;59838;52.152;5.436;2022-10-16T05:34:11;101234.06;;;11.36;100.00
71970;BME280;59838;52.152;5.436;2022-10-16T05:36:38;101234.44;;;11.33;100.00
71970;BME280;59838;52.152;5.436;2022-10-16T05:39:04;101252.81;;;11.31;100.00
71970;BME280;59838;52.152;5.436;2022-10-16T05:41:31;101253.59;;;11.32;100.00
71970;BME280;59838;52.152;5.436;2022-10-16T05:43:57;101256.38;;;11.30;100.00
71970;BME280;59838;52.152;5.436;2022-10-16T05:46:24;101264.84;;;11.32;100.00
71970;BME280;59838;52.152;5.436;2022-10-16T05:48:53;101262.06;;;11.34;100.00
71970;BME280;59838;52.152;5.436;2022-10-16T05:51:20;101266.91;;;11.37;100.00
71970;BME280;59838;52.152;5.436;2022-10-16T05:53:46;101265.75;;;11.40;100.00
71970;BME280;59838;52.152;5.436;2022-10-16T05:56:13;101282.63;;;11.44;100.00
71970;BME280;59838;52.152;5.436;2022-10-16T05:58:40;101286.66;;;11.46;100.00
71970;BME280;59838;52.152;5.436;2022-10-16T06:01:13;101287.94;;;11.50;100.00
71970;BME280;59838;52.152;5.436;2022-10-16T06:03:40;101294.38;;;11.55;100.00
71970;BME280;59838;52.152;5.436;2022-10-16T06:06:17;101285.59;;;11.56;100.00
71970;BME280;59838;52.152;5.436;2022-10-16T06:08:45;101287.03;;;11.58;100.00
71970;BME280;59838;52.152;5.436;2022-10-16T06:11:16;101296.28;;;11.61;100.00
71970;BME280;59838;52.152;5.436;2022-10-16T06:13:43;101297.56;;;11.65;100.00
71970;BME280;59838;52.152;5.436;2022-10-16T06:16:12;101298.16;;;11.67;100.00
71970;BME280;59838;52.152;5.436;2022-10-16T06:18:39;101298.78;;;11.69;100.00
71970;BME280;59838;52.152;5.436;2022-10-16T06:21:17;101308.84;;;11.72;100.00
71970;BME280;59838;52.152;5.436;2022-10-16T06:23:44;101313.09;;;11.73;100.00
71970;BME280;59838;52.152;5.436;2022-10-16T06:26:16;101321.50;;;11.75;100.00
71970;BME280;59838;52.152;5.436;2022-10-16T06:28:43;101319.53;;;11.77;100.00
71970;BME280;59838;52.152;5.436;2022-10-16T06:31:10;101323.59;;;11.80;100.00
71970;BME280;59838;52.152;5.436;2022-10-16T06:33:38;101331.66;;;11.85;100.00
71970;BME280;59838;52.152;5.436;2022-10-16T06:36:08;101333.91;;;11.88;100.00
71970;BME280;59838;52.152;5.436;2022-10-16T06:38:35;101329.31;;;11.90;100.00
71970;BME280;59838;52.152;5.436;2022-10-16T06:41:02;101330.81;;;11.93;100.00
71970;BME280;59838;52.152;5.436;2022-10-16T06:43:29;101329.00;;;11.93;100.00
71970;BME280;59838;52.152;5.436;2022-10-16T06:46:02;101331.59;;;11.93;100.00
71970;BME280;59838;52.152;5.436;2022-10-16T06:48:30;101341.66;;;11.96;100.00
71970;BME280;59838;52.152;5.436;2022-10-16T06:51:12;101341.13;;;12.01;100.00
71970;BME280;59838;52.152;5.436;2022-10-16T06:53:41;101347.97;;;12.02;100.00
71970;BME280;59838;52.152;5.436;2022-10-16T06:56:28;101348.41;;;12.05;100.00
71970;BME280;59838;52.152;5.436;2022-10-16T06:58:57;101345.63;;;12.07;99.83
71970;BME280;59838;52.152;5.436;2022-10-16T07:01:25;101337.63;;;12.09;99.87
71970;BME280;59838;52.152;5.436;2022-10-16T07:03:52;101341.84;;;12.10;99.96
71970;BME280;59838;52.152;5.436;2022-10-16T07:06:21;101344.91;;;12.13;99.83
71970;BME280;59838;52.152;5.436;2022-10-16T07:08:48;101329.72;;;12.17;99.67
71970;BME280;59838;52.152;5.436;2022-10-16T07:11:19;101349.03;;;12.22;99.41
71970;BME280;59838;52.152;5.436;2022-10-16T07:13:47;101359.09;;;12.25;99.48
71970;BME280;59838;52.152;5.436;2022-10-16T07:16:26;101374.00;;;12.32;99.41
71970;BME280;59838;52.152;5.436;2022-10-16T07:18:57;101381.09;;;12.38;99.43
71970;BME280;59838;52.152;5.436;2022-10-16T07:21:28;101384.94;;;12.42;99.08
71970;BME280;59838;52.152;5.436;2022-10-16T07:23:59;101383.00;;;12.44;98.72
71970;BME280;59838;52.152;5.436;2022-10-16T07:26:30;101389.44;;;12.48;98.92
71970;BME280;59838;52.152;5.436;2022-10-16T07:28:57;101392.84;;;12.49;98.57
71970;BME280;59838;52.152;5.436;2022-10-16T07:31:24;101390.34;;;12.55;98.55
71970;BME280;59838;52.152;5.436;2022-10-16T07:33:50;101388.38;;;12.57;98.24
71970;BME280;59838;52.152;5.436;2022-10-16T07:36:19;101406.06;;;12.62;97.39
71970;BME280;59838;52.152;5.436;2022-10-16T07:38:46;101416.56;;;12.69;97.04
71970;BME280;59838;52.152;5.436;2022-10-16T07:41:15;101414.84;;;12.76;96.33
71970;BME280;59838;52.152;5.436;2022-10-16T07:43:47;101424.72;;;12.80;95.85
71970;BME280;59838;52.152;5.436;2022-10-16T07:46:13;101423.38;;;12.85;95.29
71970;BME280;59838;52.152;5.436;2022-10-16T07:48:40;101434.25;;;12.88;94.52
71970;BME280;59838;52.152;5.436;2022-10-16T07:51:07;101441.53;;;12.93;94.54
71970;BME280;59838;52.152;5.436;2022-10-16T07:53:33;101451.03;;;13.01;94.42
71970;BME280;59838;52.152;5.436;2022-10-16T07:56:02;101455.88;;;13.04;93.91
71970;BME280;59838;52.152;5.436;2022-10-16T07:58:29;101467.41;;;13.09;93.89
71970;BME280;59838;52.152;5.436;2022-10-16T08:00:56;101462.56;;;13.28;93.79
71970;BME280;59838;52.152;5.436;2022-10-16T08:03:24;101468.78;;;13.42;93.48
71970;BME280;59838;52.152;5.436;2022-10-16T08:05:51;101461.25;;;13.53;93.02
71970;BME280;59838;52.152;5.436;2022-10-16T08:08:18;101471.75;;;13.60;92.58
71970;BME280;59838;52.152;5.436;2022-10-16T08:10:45;101468.63;;;13.71;92.50
71970;BME280;59838;52.152;5.436;2022-10-16T08:13:11;101469.06;;;13.75;91.60
71970;BME280;59838;52.152;5.436;2022-10-16T08:15:43;101479.41;;;13.83;90.84
71970;BME280;59838;52.152;5.436;2022-10-16T08:18:10;101476.16;;;13.81;90.77
71970;BME280;59838;52.152;5.436;2022-10-16T08:20:38;101483.25;;;13.87;91.10
71970;BME280;59838;52.152;5.436;2022-10-16T08:23:04;101482.56;;;14.00;90.43
71970;BME280;59838;52.152;5.436;2022-10-16T08:25:31;101488.56;;;14.01;90.95
71970;BME280;59838;52.152;5.436;2022-10-16T08:27:57;101485.81;;;14.09;90.50
71970;BME280;59838;52.152;5.436;2022-10-16T08:30:24;101490.72;;;14.19;89.99
71970;BME280;59838;52.152;5.436;2022-10-16T08:32:51;101498.69;;;14.11;90.03
71970;BME280;59838;52.152;5.436;2022-10-16T08:35:17;101483.09;;;14.17;89.48
71970;BME280;59838;52.152;5.436;2022-10-16T08:37:44;101494.44;;;14.31;89.21
71970;BME280;59838;52.152;5.436;2022-10-16T08:40:23;101496.31;;;14.44;87.70
71970;BME280;59838;52.152;5.436;2022-10-16T08:53:54;101529.50;;;14.72;87.00
71970;BME280;59838;52.152;5.436;2022-10-16T08:56:22;101526.31;;;14.76;86.73
71970;BME280;59838;52.152;5.436;2022-10-16T08:58:49;101532.19;;;14.85;86.80
71970;BME280;59838;52.152;5.436;2022-10-16T09:01:22;101532.63;;;14.89;86.37
71970;BME280;59838;52.152;5.436;2022-10-16T09:06:46;101543.53;;;14.99;86.46
71970;BME280;59838;52.152;5.436;2022-10-16T09:09:17;101537.50;;;14.98;85.81
71970;BME280;59838;52.152;5.436;2022-10-16T09:20:35;101560.84;;;15.00;86.00
71970;BME280;59838;52.152;5.436;2022-10-16T09:22:40;101571.72;;;15.04;85.93
71970;BME280;59838;52.152;5.436;2022-10-16T09:25:16;101568.09;;;15.05;85.94
71970;BME280;59838;52.152;5.436;2022-10-16T09:27:45;101575.56;;;15.08;86.09
71970;BME280;59838;52.152;5.436;2022-10-16T09:30:15;101579.03;;;15.15;86.47
71970;BME280;59838;52.152;5.436;2022-10-16T09:32:44;101575.44;;;15.23;85.33
71970;BME280;59838;52.152;5.436;2022-10-16T09:35:17;101573.06;;;15.34;85.80
71970;BME280;59838;52.152;5.436;2022-10-16T09:37:48;101586.41;;;15.46;85.91
71970;BME280;59838;52.152;5.436;2022-10-16T09:40:31;101581.63;;;15.57;85.48
71970;BME280;59838;52.152;5.436;2022-10-16T09:45:59;101586.13;;;15.83;83.62
71970;BME280;59838;52.152;5.436;2022-10-16T09:48:42;101585.56;;;16.01;83.37
71970;BME280;59838;52.152;5.436;2022-10-16T09:51:21;101592.81;;;16.05;83.83
71970;BME280;59838;52.152;5.436;2022-10-16T09:53:55;101586.97;;;16.10;81.11
71970;BME280;59838;52.152;5.436;2022-10-16T09:56:25;101596.44;;;16.24;82.01
71970;BME280;59838;52.152;5.436;2022-10-16T09:58:53;101593.03;;;16.51;81.74
71970;BME280;59838;52.152;5.436;2022-10-16T10:01:24;101593.22;;;16.62;80.90
71970;BME280;59838;52.152;5.436;2022-10-16T10:03:55;101603.91;;;16.68;79.22
71970;BME280;59838;52.152;5.436;2022-10-16T10:06:33;101603.28;;;16.79;79.79
71970;BME280;59838;52.152;5.436;2022-10-16T10:09:04;101608.69;;;16.84;78.64
71970;BME280;59838;52.152;5.436;2022-10-16T10:17:10;101594.38;;;17.00;77.76
71970;BME280;59838;52.152;5.436;2022-10-16T10:20:27;101601.06;;;16.96;76.24
71970;BME280;59838;52.152;5.436;2022-10-16T10:30:42;101615.44;;;17.39;75.33
71970;BME280;59838;52.152;5.436;2022-10-16T10:36:34;101620.63;;;17.52;75.70
71970;BME280;59838;52.152;5.436;2022-10-16T10:39:20;101624.78;;;17.73;74.71
71970;BME280;59838;52.152;5.436;2022-10-16T10:42:06;101632.50;;;18.06;73.44
71970;BME280;59838;52.152;5.436;2022-10-16T10:44:53;101642.03;;;18.01;71.75
71970;BME280;59838;52.152;5.436;2022-10-16T10:47:40;101636.44;;;17.84;73.16
71970;BME280;59838;52.152;5.436;2022-10-16T10:50:31;101640.72;;;17.78;72.96
71970;BME280;59838;52.152;5.436;2022-10-16T10:55:54;101636.06;;;17.73;73.46
71970;BME280;59838;52.152;5.436;2022-10-16T11:01:39;101636.84;;;18.19;71.56
71970;BME280;59838;52.152;5.436;2022-10-16T11:04:40;101637.69;;;18.38;71.62
71970;BME280;59838;52.152;5.436;2022-10-16T11:07:35;101640.25;;;18.52;70.62
71970;BME280;59838;52.152;5.436;2022-10-16T11:10:27;101653.06;;;18.67;70.11
71970;BME280;59838;52.152;5.436;2022-10-16T11:13:22;101653.66;;;18.69;68.91
71970;BME280;59838;52.152;5.436;2022-10-16T11:15:53;101664.75;;;18.71;67.43
71970;BME280;59838;52.152;5.436;2022-10-16T11:18:32;101658.31;;;18.92;67.04
71970;BME280;59838;52.152;5.436;2022-10-16T11:21:09;101661.06;;;18.78;67.22
71970;BME280;59838;52.152;5.436;2022-10-16T11:23:56;101676.03;;;18.78;66.03
71970;BME280;59838;52.152;5.436;2022-10-16T11:26:28;101664.88;;;18.82;67.07
71970;BME280;59838;52.152;5.436;2022-10-16T11:28:57;101672.78;;;18.82;66.46
71970;BME280;59838;52.152;5.436;2022-10-16T11:31:38;101673.97;;;18.87;66.34
71970;BME280;59838;52.152;5.436;2022-10-16T11:37:02;101667.16;;;18.72;64.25
71970;BME280;59838;52.152;5.436;2022-10-16T11:39:31;101680.88;;;18.81;66.04
71970;BME280;59838;52.152;5.436;2022-10-16T11:42:11;101677.56;;;18.92;65.67
71970;BME280;59838;52.152;5.436;2022-10-16T11:45:27;101669.22;;;18.70;65.66
71970;BME280;59838;52.152;5.436;2022-10-16T11:47:55;101681.47;;;18.33;65.99
71970;BME280;59838;52.152;5.436;2022-10-16T11:50:34;101689.41;;;18.26;65.71
71970;BME280;59838;52.152;5.436;2022-10-16T11:55:51;101688.75;;;17.99;66.74
71970;BME280;59838;52.152;5.436;2022-10-16T12:04:06;101678.78;;;18.14;63.18
71970;BME280;59838;52.152;5.436;2022-10-16T12:06:43;101686.19;;;18.24;64.76
71970;BME280;59838;52.152;5.436;2022-10-16T12:09:29;101688.78;;;18.31;64.95
71970;BME280;59838;52.152;5.436;2022-10-16T12:11:57;101695.22;;;18.35;62.78
71970;BME280;59838;52.152;5.436;2022-10-16T12:17:33;101700.34;;;18.55;63.87
71970;BME280;59838;52.152;5.436;2022-10-16T12:20:19;101693.13;;;18.69;61.75
71970;BME280;59838;52.152;5.436;2022-10-16T12:22:52;101699.03;;;18.64;61.87
71970;BME280;59838;52.152;5.436;2022-10-16T12:25:38;101697.97;;;18.72;63.32
71970;BME280;59838;52.152;5.436;2022-10-16T12:28:26;101697.91;;;18.78;62.81
71970;BME280;59838;52.152;5.436;2022-10-16T12:30:56;101704.03;;;18.72;62.67
71970;BME280;59838;52.152;5.436;2022-10-16T12:33:34;101712.09;;;18.77;63.02
71970;BME280;59838;52.152;5.436;2022-10-16T12:36:04;101709.69;;;18.76;63.52
71970;BME280;59838;52.152;5.436;2022-10-16T12:38:53;101715.00;;;18.69;63.83
71970;BME280;59838;52.152;5.436;2022-10-16T12:41:31;101715.16;;;18.49;62.77
71970;BME280;59838;52.152;5.436;2022-10-16T12:43:59;101717.75;;;18.24;63.60
71970;BME280;59838;52.152;5.436;2022-10-16T12:51:41;101704.13;;;18.02;62.86
71970;BME280;59838;52.152;5.436;2022-10-16T12:54:15;101710.13;;;18.09;63.83
71970;BME280;59838;52.152;5.436;2022-10-16T13:05:08;101709.09;;;18.17;64.47
71970;BME280;59838;52.152;5.436;2022-10-16T13:16:49;101721.94;;;18.32;62.54
71970;BME280;59838;52.152;5.436;2022-10-16T13:22:37;101720.56;;;18.29;62.83
71970;BME280;59838;52.152;5.436;2022-10-16T13:25:45;101724.59;;;18.25;62.55
71970;BME280;59838;52.152;5.436;2022-10-16T13:28:22;101731.13;;;18.22;61.54
71970;BME280;59838;52.152;5.436;2022-10-16T13:30:55;101731.50;;;18.26;63.03
71970;BME280;59838;52.152;5.436;2022-10-16T13:33:37;101734.72;;;18.28;62.67
71970;BME280;59838;52.152;5.436;2022-10-16T13:36:06;101734.72;;;18.28;63.11
71970;BME280;59838;52.152;5.436;2022-10-16T13:38:34;101744.00;;;18.31;62.96
71970;BME280;59838;52.152;5.436;2022-10-16T13:41:12;101742.13;;;18.38;62.85
71970;BME280;59838;52.152;5.436;2022-10-16T13:43:45;101750.63;;;18.40;64.49
71970;BME280;59838;52.152;5.436;2022-10-16T13:46:17;101751.69;;;18.32;64.12
71970;BME280;59838;52.152;5.436;2022-10-16T13:48:45;101741.63;;;18.22;62.57
71970;BME280;59838;52.152;5.436;2022-10-16T13:51:22;101741.06;;;18.14;62.47
71970;BME280;59838;52.152;5.436;2022-10-16T13:53:55;101742.50;;;18.09;63.76
71970;BME280;59838;52.152;5.436;2022-10-16T13:56:27;101742.09;;;18.06;63.22
71970;BME280;59838;52.152;5.436;2022-10-16T13:59:07;101745.56;;;18.06;63.52
71970;BME280;59838;52.152;5.436;2022-10-16T14:01:49;101753.88;;;18.03;63.06
71970;BME280;59838;52.152;5.436;2022-10-16T14:04:17;101756.50;;;18.03;63.83
71970;BME280;59838;52.152;5.436;2022-10-16T14:06:46;101761.97;;;18.02;63.14
71970;BME280;59838;52.152;5.436;2022-10-16T14:09:26;101765.38;;;18.02;64.07
71970;BME280;59838;52.152;5.436;2022-10-16T14:11:56;101761.75;;;18.03;65.53
71970;BME280;59838;52.152;5.436;2022-10-16T14:14:24;101761.16;;;18.01;64.69
71970;BME280;59838;52.152;5.436;2022-10-16T14:16:53;101757.91;;;17.99;64.73
71970;BME280;59838;52.152;5.436;2022-10-16T14:19:22;101758.78;;;17.93;64.51
71970;BME280;59838;52.152;5.436;2022-10-16T14:21:51;101759.56;;;17.94;65.25
71970;BME280;59838;52.152;5.436;2022-10-16T14:26:57;101760.41;;;17.87;65.66
71970;BME280;59838;52.152;5.436;2022-10-16T14:29:25;101758.56;;;17.81;65.71
71970;BME280;59838;52.152;5.436;2022-10-16T14:32:03;101758.38;;;17.76;66.05
71970;BME280;59838;52.152;5.436;2022-10-16T14:34:35;101757.41;;;17.70;64.82
71970;BME280;59838;52.152;5.436;2022-10-16T14:37:25;101756.38;;;17.71;65.57
71970;BME280;59838;52.152;5.436;2022-10-16T14:39:54;101756.78;;;17.68;65.33
71970;BME280;59838;52.152;5.436;2022-10-16T14:42:23;101759.22;;;17.63;65.07
71970;BME280;59838;52.152;5.436;2022-10-16T14:44:52;101764.91;;;17.60;65.55
71970;BME280;59838;52.152;5.436;2022-10-16T14:47:22;101772.56;;;17.62;66.57
71970;BME280;59838;52.152;5.436;2022-10-16T14:49:52;101764.50;;;17.63;66.54